Time;durP1;ratioP1;P1;durP2;ratioP2;P2;SDS_P1;SDS_P2;PMS_P1;PMS_P2;Temp;Humidity;BMP_temperature;BMP_pressure;BME280_temperature;BME280_humidity;BME280_pressure;Samples;Min_cycle;Max_cycle;Signal;HPM_P1;HPM_P2
2021/10/29 00:00:33;;;;;;;34.33;23.40;;;;;;;8.34;100.00;100041.89;1658388;84;20997;-70
2021/10/29 00:03:05;;;;;;;38.45;23.70;;;;;;;8.34;100.00;100043.63;1682954;84;20996;-70
2021/10/29 00:05:37;;;;;;;65.17;24.72;;;;;;;8.32;100.00;100041.38;1682825;84;21168;-70
2021/10/29 00:08:07;;;;;;;35.48;21.10;;;;;;;8.29;100.00;100042.63;1654577;85;21464;-70
2021/10/29 00:10:40;;;;;;;27.35;19.80;;;;;;;8.31;100.00;100048.80;1655365;86;20962;-70
2021/10/29 00:13:07;;;;;;;;;;;;;;;8.36;100.00;100045.42;1657605;86;21500;-70
2021/10/29 00:15:36;;;;;;;24.65;19.37;;;;;;;8.41;100.00;100052.08;1670808;84;20431;-70
2021/10/29 00:18:04;;;;;;;27.13;19.25;;;;;;;8.45;100.00;100046.89;1682735;84;21158;-70
2021/10/29 00:20:32;;;;;;;31.95;19.77;;;;;;;8.49;100.00;100042.56;1681122;84;21040;-70
2021/10/29 00:23:00;;;;;;;26.95;18.92;;;;;;;8.53;100.00;100041.79;1682660;84;21078;-70
2021/10/29 00:25:28;;;;;;;25.48;18.45;;;;;;;8.58;100.00;100037.48;1673196;84;20966;-70
2021/10/29 00:27:57;;;;;;;24.72;20.92;;;;;;;8.64;100.00;100042.84;1655280;85;21449;-70
2021/10/29 00:30:25;;;;;;;27.67;21.73;;;;;;;8.66;100.00;100041.13;1657378;85;21131;-70
2021/10/29 00:32:53;;;;;;;29.72;20.95;;;;;;;8.69;100.00;100041.17;1683173;84;20905;-71
2021/10/29 00:35:21;;;;;;;25.70;19.67;;;;;;;8.72;100.00;100045.16;1665009;85;20969;-71
2021/10/29 00:37:50;;;;;;;26.68;19.30;;;;;;;8.76;100.00;100046.98;1661158;85;21055;-70
2021/10/29 00:40:18;;;;;;;27.52;19.55;;;;;;;8.79;100.00;100043.08;1670963;85;21074;-70
2021/10/29 00:42:46;;;;;;;26.07;18.98;;;;;;;8.83;100.00;100053.22;1625094;88;21177;-70
2021/10/29 00:45:15;;;;;;;25.55;18.80;;;;;;;8.86;100.00;100051.06;1644629;85;20907;-70
2021/10/29 00:47:42;;;;;;;26.62;19.85;;;;;;;8.89;100.00;100045.41;1652379;85;21010;-70
2021/10/29 00:50:11;;;;;;;23.95;19.50;;;;;;;8.93;100.00;100043.72;1668630;85;21083;-70
2021/10/29 00:52:43;;;;;;;26.93;18.80;;;;;;;8.98;100.00;100046.87;1671693;85;21583;-71
2021/10/29 00:55:11;;;;;;;22.87;17.95;;;;;;;9.00;100.00;100042.55;1670136;85;21237;-70
2021/10/29 00:57:40;;;;;;;24.55;18.92;;;;;;;9.05;100.00;100049.19;1668553;85;21647;-71
2021/10/29 01:00:10;;;;;;;25.37;18.90;;;;;;;9.10;100.00;100047.07;1670873;85;20979;-71
2021/10/29 01:02:39;;;;;;;25.97;19.57;;;;;;;9.14;100.00;100042.73;1664708;85;20946;-69
2021/10/29 01:05:08;;;;;;;27.80;18.70;;;;;;;9.18;100.00;100040.59;1671583;85;20974;-69
2021/10/29 01:07:39;;;;;;;25.02;18.95;;;;;;;9.21;100.00;100040.64;1670093;85;21006;-70
2021/10/29 01:10:07;;;;;;;23.32;17.32;;;;;;;9.23;100.00;100036.70;1671761;85;20950;-69
2021/10/29 01:12:37;;;;;;;27.20;19.30;;;;;;;9.24;100.00;100034.09;1671665;85;21437;-69
2021/10/29 01:15:07;;;;;;;23.77;18.35;;;;;;;9.29;100.00;100042.94;1671282;85;20959;-70
2021/10/29 01:17:36;;;;;;;22.73;18.67;;;;;;;9.30;100.00;100042.08;1671474;85;20963;-69
2021/10/29 01:20:06;;;;;;;26.30;19.57;;;;;;;9.32;100.00;100046.05;1634725;85;21232;-70
2021/10/29 01:22:35;;;;;;;25.30;19.87;;;;;;;9.32;100.00;100044.73;1630678;88;20974;-69
2021/10/29 01:25:04;;;;;;;27.17;19.67;;;;;;;9.35;100.00;100045.65;1634787;85;20974;-69
2021/10/29 01:27:33;;;;;;;24.92;17.95;;;;;;;9.37;100.00;100041.72;1651106;86;21490;-69
2021/10/29 01:30:01;;;;;;;27.00;19.07;;;;;;;9.40;100.00;100043.08;1647492;85;20954;-69
2021/10/29 01:32:30;;;;;;;23.30;17.62;;;;;;;9.42;100.00;100041.34;1651607;85;21162;-70
2021/10/29 01:35:00;;;;;;;21.80;17.75;;;;;;;9.41;100.00;100040.46;1651430;86;21006;-70
2021/10/29 01:37:30;;;;;;;25.50;17.98;;;;;;;9.39;100.00;100039.56;1659277;86;20961;-70
2021/10/29 01:40:03;;;;;;;23.12;18.30;;;;;;;9.38;100.00;100041.73;1647771;85;21028;-70
2021/10/29 01:42:33;;;;;;;;;;;;;;;9.38;100.00;100039.11;1658729;86;20904;-70
2021/10/29 01:45:03;;;;;;;28.00;17.60;;;;;;;9.36;100.00;100038.63;1648716;85;21158;-69
2021/10/29 01:47:35;;;;;;;21.15;16.17;;;;;;;9.33;100.00;100040.80;1647535;85;21449;-69
2021/10/29 01:50:07;;;;;;;22.17;16.75;;;;;;;9.32;100.00;100044.73;1637750;85;20966;-69
2021/10/29 01:52:37;;;;;;;22.70;17.07;;;;;;;9.36;100.00;100053.12;1647396;85;21418;-70
2021/10/29 01:55:06;;;;;;;22.70;16.90;;;;;;;9.38;100.00;100049.64;1647392;85;20887;-69
2021/10/29 01:57:35;;;;;;;22.82;16.80;;;;;;;9.40;100.00;100041.76;1647403;85;21852;-70
2021/10/29 02:00:07;;;;;;;24.55;18.45;;;;;;;9.41;100.00;100040.46;1647264;85;20999;-69
2021/10/29 02:02:40;;;;;;;23.70;18.60;;;;;;;9.43;100.00;100047.06;1655041;86;20978;-69
2021/10/29 02:05:08;;;;;;;21.42;16.67;;;;;;;9.44;100.00;100047.08;1655500;85;20965;-68
2021/10/29 02:07:37;;;;;;;20.55;16.95;;;;;;;9.46;100.00;100045.81;1655563;85;20938;-70
2021/10/29 02:10:07;;;;;;;28.32;18.77;;;;;;;9.46;100.00;100046.70;1655781;85;21071;-70
2021/10/29 02:12:35;;;;;;;25.72;18.20;;;;;;;9.47;100.00;100043.64;1673547;85;20950;-69
2021/10/29 02:15:04;;;;;;;21.35;16.90;;;;;;;9.46;100.00;100044.50;1673227;85;21496;-69
2021/10/29 02:17:33;;;;;;;27.25;17.77;;;;;;;9.47;100.00;100046.27;1673398;85;20990;-69
2021/10/29 02:20:01;;;;;;;23.15;17.20;;;;;;;9.45;100.00;100040.95;1673252;85;21061;-69
2021/10/29 02:22:30;;;;;;;27.95;17.52;;;;;;;9.46;100.00;100046.70;1673684;85;21988;-70
2021/10/29 02:24:58;;;;;;;25.70;18.37;;;;;;;9.49;100.00;100050.24;1673124;85;21160;-69
2021/10/29 02:27:26;;;;;;;24.52;18.70;;;;;;;9.50;100.00;100048.06;1673144;85;20903;-69
2021/10/29 02:29:55;;;;;;;28.35;19.32;;;;;;;9.50;100.00;100050.26;1675464;85;21488;-69
2021/10/29 02:32:26;;;;;;;24.60;19.67;;;;;;;9.50;100.00;100055.95;1703649;84;21132;-69
2021/10/29 02:34:54;;;;;;;22.25;18.27;;;;;;;9.49;100.00;100053.76;1704265;84;21118;-69
2021/10/29 02:37:22;;;;;;;22.98;17.37;;;;;;;9.49;100.00;100057.70;1681756;84;21037;-69
2021/10/29 02:39:52;;;;;;;25.97;18.67;;;;;;;9.52;100.00;100057.75;1679438;84;20966;-69
2021/10/29 02:42:19;;;;;;;23.20;17.70;;;;;;;9.55;100.00;100064.37;1678052;84;21041;-70
2021/10/29 02:44:47;;;;;;;22.45;18.32;;;;;;;9.55;100.00;100057.78;1677594;84;21014;-69
2021/10/29 02:47:15;;;;;;;25.20;18.77;;;;;;;9.57;100.00;100063.07;1677491;85;21456;-70
2021/10/29 02:49:43;;;;;;;23.60;17.98;;;;;;;9.57;100.00;100062.64;1687480;84;21433;-69
2021/10/29 02:52:11;;;;;;;27.55;17.00;;;;;;;9.58;100.00;100063.52;1706265;84;21459;-70
2021/10/29 02:54:39;;;;;;;22.85;16.80;;;;;;;9.59;100.00;100066.61;1706030;84;20973;-69
2021/10/29 02:57:07;;;;;;;24.92;18.48;;;;;;;9.61;100.00;100062.24;1705856;84;21001;-69
2021/10/29 02:59:36;;;;;;;23.80;18.70;;;;;;;9.61;100.00;100059.61;1701507;84;21575;-69
2021/10/29 03:02:04;;;;;;;30.90;18.67;;;;;;;9.59;100.00;100062.22;1677927;84;20938;-71
2021/10/29 03:04:33;;;;;;;26.37;18.67;;;;;;;9.59;100.00;100060.91;1677555;84;21658;-69
2021/10/29 03:07:01;;;;;;;22.62;18.32;;;;;;;9.59;100.00;100067.49;1677779;84;21036;-70
2021/10/29 03:09:29;;;;;;;24.65;17.82;;;;;;;9.59;100.00;100066.61;1677614;84;21101;-70
2021/10/29 03:11:57;;;;;;;22.20;17.48;;;;;;;9.62;100.00;100069.28;1679339;84;21158;-69
2021/10/29 03:14:26;;;;;;;25.45;17.85;;;;;;;9.64;100.00;100068.43;1677449;84;20899;-69
2021/10/29 03:16:54;;;;;;;27.85;18.92;;;;;;;9.66;100.00;100070.66;1677782;84;20954;-64
2021/10/29 03:19:23;;;;;;;29.48;18.07;;;;;;;9.70;100.00;100064.98;1704322;84;21580;-70
2021/10/29 03:21:52;;;;;;;25.60;18.35;;;;;;;9.67;100.00;100064.95;1706230;84;20974;-70
2021/10/29 03:24:20;;;;;;;28.98;18.55;;;;;;;9.69;100.00;100072.44;1705959;84;21563;-70
2021/10/29 03:26:48;;;;;;;24.60;17.37;;;;;;;9.67;100.00;100071.11;1706137;84;20862;-69
2021/10/29 03:29:17;;;;;;;21.10;16.05;;;;;;;9.67;100.00;100077.69;1684310;84;21466;-70
2021/10/29 03:31:44;;;;;;;21.82;16.93;;;;;;;9.71;100.00;100072.02;1677566;85;21019;-71
2021/10/29 03:34:14;;;;;;;25.35;18.60;;;;;;;9.73;100.00;100078.20;1691324;84;21489;-65
2021/10/29 03:36:43;;;;;;;22.30;17.57;;;;;;;9.73;100.00;100080.39;1706117;84;21121;-73
2021/10/29 03:39:27;;;;;;;25.25;17.82;;;;;;;9.72;100.00;100073.36;1683289;84;21508;-69
2021/10/29 03:41:59;;;;;;;24.23;17.60;;;;;;;9.73;100.00;100074.24;1672705;84;21018;-66
2021/10/29 03:44:51;;;;;;;24.93;17.53;;;;;;;9.73;100.00;100080.83;1671382;84;21030;-65
2021/10/29 03:47:16;;;;;;;23.10;17.55;;;;;;;9.75;100.00;100087.00;1683681;83;21322;-72
2021/10/29 03:54:51;;;;;;;30.12;17.82;;;;;;;9.78;100.00;100076.50;1703315;84;20942;-68
2021/10/29 03:57:26;;;;;;;22.67;16.77;;;;;;;9.77;100.00;100074.73;1677200;85;20923;-69
2021/10/29 03:59:58;;;;;;;24.80;17.65;;;;;;;9.77;100.00;100073.41;1674892;84;21010;-70
2021/10/29 04:02:28;;;;;;;21.70;16.82;;;;;;;9.79;100.00;100076.52;1679801;84;21851;-64
2021/10/29 04:04:58;;;;;;;26.05;16.57;;;;;;;9.79;100.00;100076.95;1676674;84;21422;-69
2021/10/29 04:07:28;;;;;;;23.47;18.27;;;;;;;9.82;100.00;100076.98;1675027;84;21066;-69
2021/10/29 04:09:57;;;;;;;21.70;17.32;;;;;;;9.84;100.00;100075.69;1678519;84;20950;-69
2021/10/29 04:12:27;;;;;;;22.82;17.75;;;;;;;9.84;100.00;100083.16;1673172;85;21498;-68
2021/10/29 04:15:03;;;;;;;33.65;23.52;;;;;;;9.84;100.00;100079.20;1633787;86;21492;-69
2021/10/29 04:17:28;;;;;;;41.25;27.80;;;;;;;9.83;100.00;100082.70;1652342;86;20904;-70
2021/10/29 04:19:57;;;;;;;45.17;28.05;;;;;;;9.81;100.00;100083.12;1658067;86;21011;-68
2021/10/29 04:22:25;;;;;;;41.08;27.00;;;;;;;9.78;100.00;100083.09;1658015;86;20920;-70
2021/10/29 04:24:53;;;;;;;39.63;26.12;;;;;;;9.72;100.00;100082.58;1657971;86;21502;-69
2021/10/29 04:27:29;;;;;;;39.78;26.40;;;;;;;9.70;100.00;100084.75;1658286;86;21813;-70
2021/10/29 04:29:53;;;;;;;34.60;23.92;;;;;;;9.67;100.00;100080.75;1657886;86;20976;-70
2021/10/29 04:32:22;;;;;;;33.70;23.05;;;;;;;9.66;100.00;100082.94;1662551;85;21472;-70
2021/10/29 04:34:52;;;;;;;39.50;24.23;;;;;;;9.69;100.00;100086.92;1667803;85;21010;-70
2021/10/29 04:37:21;;;;;;;35.98;25.20;;;;;;;9.68;100.00;100089.11;1674692;85;20972;-69
2021/10/29 04:39:51;;;;;;;43.38;26.80;;;;;;;9.67;100.00;100086.02;1676303;84;21235;-68
2021/10/29 04:42:20;;;;;;;62.95;26.75;;;;;;;9.63;100.00;100090.38;1678749;85;21417;-69
2021/10/29 04:44:48;;;;;;;73.00;30.40;;;;;;;9.60;100.00;100095.60;1679101;85;21446;-70
2021/10/29 04:47:16;;;;;;;59.70;28.65;;;;;;;9.58;100.00;100095.13;1678748;85;21108;-70
2021/10/29 04:49:45;;;;;;;50.20;29.65;;;;;;;9.58;100.00;100092.50;1679049;85;21049;-69
2021/10/29 04:52:16;;;;;;;56.08;29.37;;;;;;;9.56;100.00;100094.23;1678819;84;21540;-69
2021/10/29 04:54:43;;;;;;;54.85;29.92;;;;;;;9.55;100.00;100102.99;1678997;85;21642;-69
2021/10/29 04:57:12;;;;;;;51.05;29.27;;;;;;;9.55;100.00;100096.41;1678709;85;21002;-68
2021/10/29 04:59:42;;;;;;;44.75;27.98;;;;;;;9.55;100.00;100095.09;1679168;84;21532;-70
2021/10/29 05:02:10;;;;;;;44.50;27.93;;;;;;;9.57;100.00;100096.00;1675006;85;21064;-70
2021/10/29 05:04:38;;;;;;;51.08;27.48;;;;;;;9.56;100.00;100096.43;1668116;85;21062;-70
2021/10/29 05:07:06;;;;;;;54.50;28.30;;;;;;;9.58;100.00;100103.03;1678712;85;20867;-70
2021/10/29 05:09:33;;;;;;;49.55;28.70;;;;;;;9.57;100.00;100102.15;1678801;85;21001;-70
2021/10/29 05:12:01;;;;;;;46.75;29.45;;;;;;;9.57;100.00;100107.41;1678785;85;21006;-69
2021/10/29 05:14:30;;;;;;;46.50;29.40;;;;;;;9.57;100.00;100107.84;1678904;85;21568;-69
2021/10/29 05:16:59;;;;;;;44.98;29.07;;;;;;;9.56;100.00;100111.34;1678794;85;21134;-70
2021/10/29 05:19:28;;;;;;;43.00;28.92;;;;;;;9.55;100.00;100106.95;1678717;85;21395;-70
2021/10/29 05:21:59;;;;;;;44.05;30.05;;;;;;;9.54;100.00;100108.70;1678946;85;21484;-70
2021/10/29 05:24:27;;;;;;;43.30;27.65;;;;;;;9.55;100.00;100109.58;1679079;85;20971;-70
2021/10/29 05:26:57;;;;;;;45.90;27.25;;;;;;;9.55;100.00;100113.09;1678315;85;21429;-70
2021/10/29 05:29:25;;;;;;;52.23;29.15;;;;;;;9.58;100.00;100113.56;1675102;85;21094;-70
2021/10/29 05:31:53;;;;;;;49.95;30.55;;;;;;;9.56;100.00;100116.19;1664711;85;21458;-70
2021/10/29 05:34:22;;;;;;;51.90;28.80;;;;;;;9.55;100.00;100118.37;1666469;85;20940;-70
2021/10/29 05:36:50;;;;;;;42.10;28.12;;;;;;;9.54;100.00;100119.23;1654955;85;21064;-69
2021/10/29 05:39:18;;;;;;;47.13;29.48;;;;;;;9.53;100.00;100118.78;1654907;86;21074;-69
2021/10/29 05:41:49;;;;;;;41.42;27.55;;;;;;;9.54;100.00;100127.12;1657503;86;21157;-69
2021/10/29 05:44:18;;;;;;;46.00;28.77;;;;;;;9.55;100.00;100120.11;1657773;86;21020;-70
2021/10/29 05:46:48;;;;;;;95.95;31.57;;;;;;;9.56;100.00;100117.94;1657873;86;21475;-70
2021/10/29 05:49:16;;;;;;;49.20;29.55;;;;;;;9.56;100.00;100125.41;1657187;86;21014;-70
2021/10/29 05:51:46;;;;;;;49.35;29.77;;;;;;;9.56;100.00;100129.35;1635591;86;20944;-70
2021/10/29 05:57:03;;;;;;;42.80;27.60;;;;;;;9.57;100.00;100128.92;1658015;86;20987;-69
2021/10/29 05:59:33;;;;;;;43.05;28.35;;;;;;;9.60;100.00;100128.53;1630613;88;20906;-70
2021/10/29 06:02:00;;;;;;;43.55;28.75;;;;;;;9.61;100.00;100132.05;1658062;86;20896;-69
2021/10/29 06:04:28;;;;;;;38.20;27.55;;;;;;;9.62;100.00;100141.29;1658182;86;20924;-69
2021/10/29 06:06:57;;;;;;;40.85;28.67;;;;;;;9.63;100.00;100139.54;1658240;86;21435;-68
2021/10/29 06:09:26;;;;;;;44.13;28.50;;;;;;;9.65;100.00;100140.44;1657925;86;20936;-68
2021/10/29 06:11:54;;;;;;;42.50;29.18;;;;;;;9.65;100.00;100140.02;1662687;85;20999;-69
2021/10/29 06:14:23;;;;;;;46.28;28.85;;;;;;;9.67;100.00;100145.30;1672064;85;20993;-69
2021/10/29 06:16:51;;;;;;;46.02;29.40;;;;;;;9.70;100.00;100144.02;1674833;85;21694;-68
2021/10/29 06:19:23;;;;;;;44.40;30.02;;;;;;;9.73;100.00;100153.28;1674934;85;21905;-68
2021/10/29 06:21:58;;;;;;;45.23;27.00;;;;;;;9.74;100.00;100149.35;1674585;85;21674;-69
2021/10/29 06:24:25;;;;;;;44.15;28.27;;;;;;;9.78;100.00;100156.43;1674830;85;21551;-69
2021/10/29 06:29:35;;;;;;;44.10;27.73;;;;;;;9.87;100.00;100157.41;1674721;85;20999;-69
2021/10/29 06:32:06;;;;;;;68.20;30.02;;;;;;;9.90;100.00;100157.45;1674823;85;22924;-69
2021/10/29 06:34:36;;;;;;;46.33;28.30;;;;;;;9.94;100.00;100158.86;1674993;85;20891;-69
2021/10/29 06:37:05;;;;;;;45.80;28.67;;;;;;;9.97;100.00;100160.22;1653644;85;21449;-70
2021/10/29 06:39:33;;;;;;;86.35;31.97;;;;;;;10.01;100.00;100165.98;1674757;85;20967;-69
2021/10/29 06:42:07;;;;;;;59.58;29.63;;;;;;;10.05;100.00;100170.85;1674205;85;20966;-68
2021/10/29 06:44:41;;;;;;;50.50;28.45;;;;;;;10.08;100.00;100176.16;1664184;85;21004;-68
2021/10/29 07:00:48;;;;;;;37.38;25.40;;;;;;;10.40;100.00;100193.30;1684737;84;21047;-69
2021/10/29 07:41:56;;;;;;;40.10;24.87;;;;;;;11.16;100.00;100212.98;1659928;85;20967;-70
2021/10/29 07:44:28;;;;;;;36.38;25.57;;;;;;;11.20;100.00;100210.81;1653265;84;20985;-69
2021/10/29 07:46:57;;;;;;;38.78;24.92;;;;;;;11.22;100.00;100213.47;1658524;84;21654;-69
2021/10/29 07:49:28;;;;;;;34.43;25.15;;;;;;;11.26;100.00;100208.22;1645995;85;21567;-68
2021/10/29 07:51:59;;;;;;;40.70;25.77;;;;;;;11.29;100.00;100208.25;1651880;85;21837;-68
2021/10/29 08:07:38;;;;;;;29.77;20.80;;;;;;;12.26;100.00;100205.38;1786580;80;22545;-70
2021/10/29 08:10:10;;;;;;;30.85;22.00;;;;;;;12.38;100.00;100201.03;1791283;79;21405;-70
2021/10/29 08:12:40;;;;;;;33.55;22.05;;;;;;;12.40;100.00;100204.13;1755213;80;21422;-70
2021/10/29 08:15:09;;;;;;;29.63;21.25;;;;;;;12.42;100.00;100208.11;1775808;80;20946;-69
2021/10/29 08:17:42;;;;;;;29.90;22.50;;;;;;;12.39;100.00;100210.30;1758707;81;21028;-67
2021/10/29 08:20:12;;;;;;;108.57;28.20;;;;;;;12.39;100.00;100212.06;1747570;81;20978;-69
2021/10/29 08:22:40;;;;;;;34.55;21.68;;;;;;;12.38;100.00;100211.62;1791623;80;20922;-70
2021/10/29 08:25:11;;;;;;;25.95;20.65;;;;;;;12.38;100.00;100212.50;1758159;80;21166;-70
2021/10/29 08:27:42;;;;;;;26.17;20.35;;;;;;;12.38;100.00;100211.18;1763387;80;20932;-70
2021/10/29 08:30:11;;;;;;;29.60;21.62;;;;;;;12.37;100.00;100210.73;1791488;80;20931;-70
2021/10/29 08:32:40;;;;;;;31.95;22.37;;;;;;;12.39;100.00;100215.59;1763099;80;21027;-70
2021/10/29 08:35:09;;;;;;;32.65;23.70;;;;;;;12.41;100.00;100214.27;1763336;80;20988;-71
2021/10/29 08:37:39;;;;;;;47.60;24.12;;;;;;;12.42;100.00;100218.69;1777529;80;21143;-71
2021/10/29 08:40:08;;;;;;;32.10;21.42;;;;;;;12.43;100.00;100213.41;1763266;80;20934;-71
2021/10/29 08:42:36;;;;;;;29.95;20.62;;;;;;;12.45;100.00;100215.61;1763078;80;20861;-71
2021/10/29 08:45:09;;;;;;;33.17;21.87;;;;;;;12.54;100.00;100218.72;1763426;80;20922;-71
2021/10/29 08:47:38;;;;;;;30.32;22.02;;;;;;;12.61;100.00;100216.09;1773180;80;20982;-70
2021/10/29 08:50:11;;;;;;;30.20;20.57;;;;;;;12.69;100.00;100212.58;1765490;80;21132;-71
2021/10/29 08:52:41;;;;;;;32.48;20.12;;;;;;;12.77;100.00;100213.08;1749472;81;20943;-70
2021/10/29 08:55:09;;;;;;;23.92;19.15;;;;;;;12.87;100.00;100210.00;1765903;80;21514;-69
2021/10/29 08:57:38;;;;;;;27.75;20.23;;;;;;;12.95;100.00;100210.02;1769724;80;21499;-70
2021/10/29 09:00:17;;;;;;;27.67;18.70;;;;;;;13.04;100.00;100208.25;1771024;80;20900;-70
2021/10/29 09:03:04;;;;;;;25.85;18.40;;;;;;;13.13;100.00;100213.55;1770913;80;21150;-70
2021/10/29 09:05:45;;;;;;;93.85;23.12;;;;;;;13.19;100.00;100210.94;1762323;80;21480;-71
2021/10/29 09:09:03;;;;;;;29.80;18.00;;;;;;;13.28;100.00;100215.39;1772630;80;21455;-71
2021/10/29 09:11:34;;;;;;;101.87;22.77;;;;;;;13.33;100.00;100207.44;1764596;80;20897;-71
2021/10/29 09:33:07;;;;;;;23.27;17.60;;;;;;;13.76;100.00;100202.54;1795822;79;20935;-71
2021/10/29 09:35:40;;;;;;;25.17;16.10;;;;;;;13.82;100.00;100202.97;1751898;80;21489;-71
2021/10/29 09:38:11;;;;;;;17.45;14.55;;;;;;;13.88;100.00;100202.95;1795127;79;21031;-71
2021/10/29 09:41:03;;;;;;;17.37;13.70;;;;;;;13.95;100.00;100202.05;1754141;81;20852;-70
2021/10/29 09:43:39;;;;;;;21.02;15.23;;;;;;;14.02;100.00;100203.79;1786029;79;21158;-70
2021/10/29 09:46:08;;;;;;;22.60;15.50;;;;;;;14.07;100.00;100208.64;1794093;79;20944;-70
2021/10/29 09:48:48;;;;;;;19.60;15.30;;;;;;;14.10;100.00;100191.83;1753019;80;20936;-71
2021/10/29 09:51:21;;;;;;;29.25;15.90;;;;;;;14.16;100.00;100206.39;1794005;79;20932;-71
2021/10/29 09:58:59;;;;;;;18.87;15.85;;;;;;;14.28;100.00;100202.39;1794445;79;20889;-70
2021/10/29 10:01:30;;;;;;;24.32;15.63;;;;;;;14.32;100.00;100203.27;1794900;79;21431;-71
2021/10/29 10:04:02;;;;;;;18.82;13.80;;;;;;;14.38;100.00;100205.89;1795214;79;21723;-70
2021/10/29 10:06:36;;;;;;;30.35;16.80;;;;;;;14.47;100.00;100200.56;1768557;80;21054;-71
2021/10/29 10:09:05;;;;;;;21.68;15.25;;;;;;;14.52;100.00;100205.84;1791870;80;21967;-70
2021/10/29 10:11:34;;;;;;;24.15;15.25;;;;;;;14.53;100.00;100202.30;1791279;80;20940;-75
2021/10/29 10:14:02;;;;;;;20.02;14.53;;;;;;;14.53;100.00;100200.98;1791079;80;20920;-70
2021/10/29 10:16:32;;;;;;;20.48;14.73;;;;;;;14.51;100.00;100198.77;1791358;80;20921;-70
2021/10/29 10:19:08;;;;;;;41.48;16.32;;;;;;;14.55;100.00;100202.73;1792464;80;21130;-70
2021/10/29 10:21:40;;;;;;;24.77;16.10;;;;;;;14.56;100.00;100193.88;1791059;80;21217;-70
2021/10/29 10:24:14;;;;;;;23.75;15.78;;;;;;;14.60;100.00;100207.57;1790963;80;20837;-71
2021/10/29 10:26:56;;;;;;;;;;;;;;;14.60;100.00;100198.27;1794004;80;20985;-70
2021/10/29 10:29:33;;;;;;;22.87;14.95;;;;;;;14.63;100.00;100204.02;1789252;80;20114;-71
2021/10/29 10:44:18;;;;;;;15.08;8.68;;;;;;;14.65;100.00;100199.58;1788046;80;20975;-70
2021/10/29 10:48:32;;;;;;;10.95;8.73;;;;;;;14.63;100.00;100192.95;1791131;80;21062;-71
2021/10/29 10:54:18;;;;;;;10.58;8.35;;;;;;;14.60;100.00;100197.39;1762385;80;21004;-71
2021/10/29 10:57:05;;;;;;;12.60;8.58;;;;;;;14.57;100.00;100192.10;1787957;80;20889;-67
2021/10/29 11:02:36;;;;;;;14.90;8.70;;;;;;;14.50;100.00;100183.29;1731798;80;21510;-70
2021/10/29 11:09:53;;;;;;;16.05;8.95;;;;;;;14.50;100.00;100183.29;1789286;80;20889;-69
2021/10/29 11:10:20;;;;;;;15.83;9.38;;;;;;;14.53;100.00;100177.08;1787657;80;20928;-70
2021/10/29 11:12:54;;;;;;;11.28;8.58;;;;;;;14.57;100.00;100175.72;1788817;80;21023;-70
2021/10/29 11:15:26;;;;;;;15.30;9.83;;;;;;;14.61;100.00;100180.57;1788529;80;21145;-70
2021/10/29 11:18:00;;;;;;;10.82;7.25;;;;;;;14.63;100.00;100169.49;1788521;80;20865;-70
2021/10/29 11:20:46;;;;;;;14.43;8.15;;;;;;;14.65;100.00;100173.91;1788595;80;20974;-70
2021/10/29 11:23:21;;;;;;;36.17;9.10;;;;;;;14.69;100.00;100175.68;1788916;80;20905;-70
2021/10/29 11:26:07;;;;;;;117.00;15.55;;;;;;;14.73;100.00;100177.87;1786862;80;20967;-71
2021/10/29 11:28:40;;;;;;;26.77;10.32;;;;;;;14.77;100.00;100175.63;1786584;80;21151;-70
2021/10/29 11:31:11;;;;;;;15.80;8.63;;;;;;;14.79;100.00;100180.03;1788546;80;21042;-70
2021/10/29 11:33:45;;;;;;;22.93;8.83;;;;;;;14.78;100.00;100175.62;1788731;80;21004;-71
2021/10/29 11:36:16;;;;;;;12.55;8.78;;;;;;;14.78;100.00;100178.72;1788727;80;20972;-71
2021/10/29 11:38:47;;;;;;;11.25;8.43;;;;;;;14.79;100.00;100176.50;1788646;80;21392;-71
2021/10/29 11:41:18;;;;;;;33.15;10.28;;;;;;;14.80;100.00;100174.28;1788956;80;21754;-70
2021/10/29 11:43:46;;;;;;;17.23;9.18;;;;;;;14.83;100.00;100174.70;1793303;80;20875;-70
2021/10/29 11:46:14;;;;;;;11.55;8.60;;;;;;;14.84;100.00;100161.86;1761824;81;21551;-71
2021/10/29 11:48:57;;;;;;;14.15;8.33;;;;;;;14.83;100.00;100172.93;1789959;80;21018;-69
2021/10/29 11:51:26;;;;;;;12.00;8.03;;;;;;;14.81;100.00;100162.77;1793947;80;20889;-68
2021/10/29 11:54:12;;;;;;;9.98;7.28;;;;;;;14.77;100.00;100175.19;1791774;80;21172;-69
2021/10/29 11:56:42;;;;;;;12.68;7.50;;;;;;;14.74;100.00;100169.01;1789174;80;20912;-68
2021/10/29 12:07:32;;;;;;;8.38;6.50;;;;;;;14.71;100.00;100167.70;1789385;80;21159;-69
2021/10/29 12:10:14;;;;;;;8.35;6.20;;;;;;;14.68;100.00;100159.76;1789429;80;21083;-70
2021/10/29 12:12:45;;;;;;;7.58;6.30;;;;;;;14.65;100.00;100159.74;1790208;80;20996;-70
2021/10/29 12:15:31;;;;;;;12.97;6.70;;;;;;;14.63;100.00;100158.87;1786754;80;21546;-69
2021/10/29 12:18:05;;;;;;;8.80;6.17;;;;;;;14.63;100.00;100158.42;1764724;79;20939;-70
2021/10/29 12:20:41;;;;;;;107.75;12.43;;;;;;;14.60;100.00;100159.77;1790196;79;21163;-69
2021/10/29 12:23:20;;;;;;;15.68;7.55;;;;;;;14.59;100.00;100161.11;1790325;79;21011;-68
2021/10/29 12:28:33;;;;;;;4.65;3.40;;;;;;;14.55;100.00;100152.28;1790527;79;21510;-68
2021/10/29 12:30:59;;;;;;;4.20;3.12;;;;;;;14.51;100.00;100154.52;1758598;79;21435;-69
2021/10/29 12:39:11;;;;;;;7.17;3.50;;;;;;;14.47;100.00;100148.80;1790059;80;21011;-68
2021/10/29 12:51:52;;;;;;;7.15;3.70;;;;;;;14.45;100.00;100152.78;1790323;80;20853;-66
2021/10/29 12:53:17;;;;;;;20.72;5.78;;;;;;;14.44;100.00;100147.48;1784329;80;21435;-73
2021/10/29 13:04:15;;;;;;;8.58;5.85;;;;;;;14.42;100.00;100140.86;1781966;79;20978;-73
2021/10/29 13:06:54;;;;;;;11.43;7.15;;;;;;;14.43;100.00;100147.05;1800406;79;21497;-73
2021/10/29 13:09:26;;;;;;;24.07;7.53;;;;;;;14.43;100.00;100144.40;1790270;79;20869;-73
2021/10/29 13:12:02;;;;;;;;;;;;;;;14.40;100.00;100142.61;1793851;79;20885;-73
2021/10/29 13:14:35;;;;;;;56.02;6.95;;;;;;;14.38;100.00;100140.41;1790603;79;23118;-72
2021/10/29 13:17:04;;;;;;;18.05;5.80;;;;;;;14.40;100.00;100143.94;1790548;79;20916;-73
2021/10/29 13:35:37;;;;;;;8.50;7.00;;;;;;;14.70;100.00;100132.74;1784737;80;21000;-71
2021/10/29 14:00:07;;;;;;;16.40;6.90;;;;;;;14.60;100.00;100144.29;1786754;79;20849;-71
2021/10/29 14:02:47;;;;;;;22.22;6.78;;;;;;;14.53;100.00;100140.80;1789547;79;21011;-73
2021/10/29 14:30:31;;;;;;;153.10;15.48;;;;;;;13.98;100.00;100142.80;1784597;79;20895;-70
2021/10/29 14:33:09;;;;;;;33.30;8.63;;;;;;;13.94;100.00;100139.27;1774026;80;20978;-71
2021/10/29 14:35:42;;;;;;;32.90;7.37;;;;;;;13.90;100.00;100138.84;1753591;81;21129;-66
2021/10/29 14:40:55;;;;;;;30.23;8.10;;;;;;;13.84;100.00;100138.42;1758590;79;21438;-69
2021/10/29 14:43:28;;;;;;;32.33;8.53;;;;;;;13.82;100.00;100140.20;1733030;81;20875;-70
2021/10/29 14:46:03;;;;;;;32.13;7.90;;;;;;;13.79;100.00;100145.52;1738940;81;20926;-71
2021/10/29 14:51:26;;;;;;;42.60;9.20;;;;;;;13.74;100.00;100139.80;1761130;80;20177;-71
2021/10/29 15:31:17;;;;;;;145.95;25.60;;;;;;;12.73;100.00;100141.11;1761919;81;20919;-70
2021/10/29 15:41:48;;;;;;;281.25;40.52;;;;;;;12.29;100.00;100147.18;1761765;80;21097;-73
2021/10/29 15:44:15;;;;;;;118.60;32.23;;;;;;;12.17;100.00;100147.58;1749357;80;20978;-70
2021/10/29 15:46:57;;;;;;;94.40;29.98;;;;;;;12.04;100.00;100142.69;1760012;80;20957;-71
2021/10/29 15:51:56;;;;;;;272.73;44.03;;;;;;;11.84;100.00;100153.63;1800464;79;20944;-72
2021/10/29 15:54:21;;;;;;;298.43;46.08;;;;;;;11.76;100.00;100151.31;1798226;79;21241;-70
2021/10/29 15:56:55;;;;;;;163.07;38.58;;;;;;;11.66;100.00;100151.27;1791535;79;20943;-70
2021/10/29 16:02:28;;;;;;;113.92;35.43;;;;;;;11.51;100.00;100151.63;1745602;80;21553;-70